Belle Plaine, Kansas
Current Conditions -  °F | °C
As of 9:58 PM on Tuesday 25 Nov 2014 (Local Time) from KIAB Reporting Station
Overcast Overcast  
Wind Chill: 35°   Ceiling: 12000
Heat Index: 42°   Visibility: 10mi
Dew Point: 26°   Wind: 13mph
Humidity: 54%   Direction: 150°SSE
Pressure: 29.98"   Gusts: NA
Location:  37.39°N, 97.28°W
Report Text: KIAB 260358Z AUTO 15011KT 10SM OVC120 05/M03 A2998 RMK AO2 SLP163 T00541033
Loading
Personal Weather Stations






























Interactive Weather Map New forecast layout! Learn more

10-Day Weather Forecast

Advertisements
Track Severe Weather on mobile